This is the latest recevied weather packets stored in our database for station/object W5SDC. If no packets are shown the sender has not sent any weather packets the latest 10 day(s).
| Time | Temp. | Humidity | Pressure | Rain* | Wind** | Luminosity | Snow |
|---|---|---|---|---|---|---|---|
| 1777314646 | 31.67° C | 68% | 1011.1 hPa | 0 mm | - | - | - |
| 1777314021 | 31.67° C | 68% | 1011.4 hPa | 0 mm | - | - | - |
| 1777313728 | 31.67° C | 70% | 1011.5 hPa | 0 mm | - | - | - |
| 1777313122 | 31.11° C | 71% | 1011.5 hPa | 0 mm | - | - | - |
| 1777308922 | 29.44° C | 75% | 1012 hPa | 0 mm | - | - | - |
| 1777308629 | 30° C | 74% | 1011.9 hPa | 0 mm | - | - | - |
| 1777307124 | 28.89° C | 77% | 1011.9 hPa | 0 mm | - | - | - |
| 1777305327 | 27.78° C | 81% | 1011.9 hPa | 0 mm | - | - | - |
| 1777304722 | 27.78° C | 83% | 1011.7 hPa | 0 mm | - | - | - |
| 1777303823 | 26.67° C | 86% | 1011.8 hPa | 0 mm | - | - | - |
| 1777302026 | 26.11° C | 87% | 1011.7 hPa | 0 mm | - | - | - |
| 1777299038 | 25° C | 93% | 1011.7 hPa | 0 mm | - | - | - |
| 1777298724 | 25° C | 93% | 1011.7 hPa | 0 mm | - | - | - |
| 1777298119 | 25° C | 93% | 1010.9 hPa | 0 mm | - | - | - |
| 1777295129 | 23.89° C | 96% | 1010 hPa | 0 mm | - | - | - |
| 1777294230 | 23.33° C | 97% | 1009.7 hPa | 0 mm | - | - | - |
| 1777292121 | 23.33° C | 98% | 1009.4 hPa | 0 mm | - | - | - |
| 1777291222 | 23.33° C | 98% | 1009.3 hPa | 0 mm | - | - | - |
| 1777290324 | 23.33° C | 97% | 1009.1 hPa | 0 mm | - | - | - |
| 1777289131 | 23.33° C | 97% | 1009.1 hPa | 0 mm | - | - | - |
| 1777288819 | 23.33° C | 97% | 1009.1 hPa | 0 mm | - | - | - |
| 1777286728 | 23.33° C | 96% | 1008.8 hPa | 0 mm | - | - | - |
| 1777282822 | 23.33° C | 94% | 1008.6 hPa | 0 mm | - | - | - |
| 1777281629 | 23.33° C | 94% | 1008.8 hPa | 0 mm | - | - | - |
| 1777278016 | 23.89° C | 94% | 1008.8 hPa | 0 mm | - | - | - |
* Rain latest hour (hover to see other rain measurements)
** Current wind speed in m/s (hover to see current wind gust speed)